Huvudsida
METAR-TAF:

METAR-TAF

Flygplatser :

Curaçaos internationella flygplats

Curaçao, Nederländska Antillerna

latitud: 12-12N, longitud: 068-58W, höjd: 9 m

Aktuellt väderrapport

Denna rapport gjordes för 33 minuter sedan, klockan 10:00 UTC
Vind 9 kt från ost/sydost
Temperatur 25°C
Fuktighet 79%
Tryck 1014 hPa
Sikt 10 km eller mer
Brutna moln på en höjd av 3100 ft

METAR: TNCC 171000Z AUTO 12009KT 9999 BKN031 25/21 Q1014 NOSIG

Tid: 06:33 (10:33 UTC)

Väderprognos

Denna rapport gjordes för 19 timmar och 3 minuter sedan, klockan 15:30 UTC
Prognos gäller från 16 kl. 18 UTC till 17 kl. 18 UTC
Vind 16 kt från ost i byarna ända upp till 28 kt
Sikt 10 km eller mer
Spridda moln på en höjd av 2200 ft

TAF: TNCC 161530Z 1618/1718 10016G28KT 9999 SCT022

Aktuella väderrapporter och prognoser från 4000 flygplatser (METAR- och TAF-rapporter).

De tillgängliga stationerna syns som gula och röda prickar på kartan.

För musen över prickarna för att se namnen på stationerna.

Klicka sedan för att få väderrapporter och prognoser.

För att ändra kartan: Klicka på de gröna knapparna med ett svart kors på för att zooma in; den gröna knappen med ett streck på för att zooma ut; eller på de gröna pilarna för angränsande kartor.


METAR-TAF: